Accueil
METAR-TAF:

METAR-TAF

Aéroports :

Londres-Southend, Angleterre

Aéroport de Londres-Southend

latitude: 51-34N, longitude: 000-42E, altitude: 15 m

Observation

Le bulletin a été fait il y a 27 minutes, à 10:20 UTC
Vent 20 kt de sud/sud-ouest
Température 15°C
Humidité 67%
Pression 1001 hPa
Visibilité 10 km ou plus
Quelques nuages à une hauteur de 2400 ft

METAR: EGMC 221020Z 21020KT 9999 FEW024 15/09 Q1001

Heure: 10:47 (10:47 UTC)

Prévision

Le bulletin a été fait il y a 2 heures et 48 minutes, à 07:59 UTC
Prévision valable du 22 à 09 UTC au 22 à 18 UTC
Vent 18 kt de sud-ouest avec des rafales jusqu'à 28 kt
Visibilité 10 km ou plus
Quelques nuages à une hauteur de 1500 ft
Nuages fragmentés à une hauteur de 2000 ft
Evoluant progressivement
du 22 à 09 UTC au 22 à 12 UTC
Vent 20 kt de sud avec des rafales jusqu'à 32 kt

TAF: EGMC 220759Z 2209/2218 22018G28KT 9999 FEW015 BKN020 BECMG 2209/2212 19020G32KT

Observations et prévisions météorologiques de plus de 4000 aéroports (messages METAR et TAF).

Les stations disponibles sont représentées par des disques jaunes et rouges sur la carte.

Passer la souris dessus pour voir le nom de la station.

Cliquer dessus pour voir les observations et prévisions météorologiques.

Pour changer de carte: cliquez sur les boutons verts avec une croix noire pour zoomer, sur le bouton vert avec un tiret pour effectuer un zoom arrière, ou sur les flèches vertes pour les cartes adjacentes.


METAR-TAF: